»·PEaware :: N36VS KOXR-KRIV

N36VS :: KOXR-KRIV

FLIGHT INFORMATION

Flight Status: Arrived
Operator: Privately registered:
United States
More flights under this callsign
Pilot: Bart W. (674)
Aircraft: Unknown
(M20R)
More flights by this aircraft type
Origin: KOXR Oxnard
United States
Destination: KRIV March ARB
United States
More flights between these airports :: More routes between these airports
Route: VTU044 GINNA V326 VNY V186 PDZ
File this flight plan on PilotEdge
Remarks: TEC ROUTE ONTP14
Altitude:
(Current/Filed)
9,000ft
Speed:
(Current/Filed)
175kts
Departed: 26-Dec-20 03:35 PM
Arrived: 26-Dec-20 04:28 PM
Distance/Time
Traveled:
99nm/0:53
Distance/Time
To Go:
Arrived

Flight Plot

Page will automatically refresh every two minutes.


Map Options




Map Legend


Flown Route
Filed Route
Departure Airport
Arrival Airport
Navaid (VOR, NDB)
Fix

Horizontal Profiles

Position Reports

Time Latitude Longitude Heading Altitude Ground
Speed
26-Dec-20 15:13 34.198907 -119.205617 182 44ft 0kts
26-Dec-20 15:14 34.198907 -119.205617 182 44ft 0kts
26-Dec-20 15:15 34.198268 -119.205595 175 43ft 0kts
26-Dec-20 15:16 34.198873 -119.206015 344 43ft 0kts
26-Dec-20 15:17 34.198873 -119.206015 344 43ft 0kts
26-Dec-20 15:18 34.198873 -119.206015 344 43ft 0kts
26-Dec-20 15:19 34.198873 -119.206015 344 43ft 0kts
26-Dec-20 15:20 34.198873 -119.206015 344 43ft 0kts
26-Dec-20 15:21 34.198873 -119.206015 344 43ft 0kts
26-Dec-20 15:22 34.198873 -119.206015 344 43ft 0kts
26-Dec-20 15:23 34.198873 -119.206015 344 43ft 0kts
26-Dec-20 15:24 34.198873 -119.206015 344 43ft 0kts
26-Dec-20 15:25 34.198873 -119.206015 344 43ft 0kts
26-Dec-20 15:26 34.198873 -119.206015 344 43ft 0kts
26-Dec-20 15:27 34.199787 -119.203493 89 46ft 26kts
26-Dec-20 15:28 34.199814 -119.197639 39 43ft 0kts
26-Dec-20 15:29 34.199814 -119.197639 39 43ft 0kts
26-Dec-20 15:30 34.199814 -119.197639 39 43ft 0kts
26-Dec-20 15:31 34.199814 -119.197639 39 43ft 0kts
26-Dec-20 15:32 34.199814 -119.197639 39 43ft 0kts
26-Dec-20 15:33 34.200699 -119.197677 306 43ft 5kts
26-Dec-20 15:34 34.202087 -119.224363 277 751ft 119kts
26-Dec-20 15:35 34.207486 -119.267922 277 2245ft 141kts
26-Dec-20 15:36 34.205702 -119.315519 262 3611ft 153kts
26-Dec-20 15:37 34.189410 -119.362591 215 4524ft 166kts
26-Dec-20 15:38 34.150935 -119.346857 94 4977ft 191kts
26-Dec-20 15:39 34.176878 -119.291647 52 4978ft 189kts
26-Dec-20 15:40 34.188533 -119.232459 81 4977ft 186kts
26-Dec-20 15:41 34.194275 -119.170564 88 4978ft 185kts
26-Dec-20 15:42 34.196752 -119.108423 86 4978ft 184kts
26-Dec-20 15:43 34.199351 -119.047062 86 4979ft 183kts
26-Dec-20 15:44 34.202011 -118.985613 86 4979ft 183kts
26-Dec-20 15:45 34.204686 -118.923988 86 4979ft 184kts
26-Dec-20 15:46 34.207367 -118.862383 86 4978ft 183kts
26-Dec-20 15:47 34.210034 -118.800862 86 4984ft 183kts
26-Dec-20 15:48 34.212712 -118.739052 86 4976ft 183kts
26-Dec-20 15:49 34.215373 -118.677874 86 4975ft 183kts
26-Dec-20 15:50 34.218008 -118.617129 86 4987ft 182kts
26-Dec-20 15:51 34.220701 -118.555180 86 4996ft 182kts
26-Dec-20 15:52 34.223372 -118.494249 85 4997ft 182kts
26-Dec-20 15:53 34.207352 -118.438323 114 4997ft 182kts
26-Dec-20 15:54 34.189974 -118.380700 111 4996ft 182kts
26-Dec-20 15:55 34.172602 -118.323049 110 4996ft 182kts
26-Dec-20 15:56 34.155209 -118.265425 110 4997ft 182kts
26-Dec-20 15:57 34.137839 -118.207926 110 4999ft 182kts
26-Dec-20 15:58 34.120735 -118.151154 109 5004ft 182kts
26-Dec-20 15:59 34.100609 -118.101410 120 5005ft 181kts
26-Dec-20 16:00 34.079507 -118.047623 109 5006ft 180kts
26-Dec-20 16:01 34.063204 -117.994702 111 5008ft 181kts
26-Dec-20 16:02 34.046145 -117.939686 111 5007ft 181kts
26-Dec-20 16:03 34.030061 -117.888026 111 5015ft 182kts
26-Dec-20 16:04 34.014301 -117.837470 111 5014ft 181kts
26-Dec-20 16:05 33.996771 -117.781268 111 5018ft 181kts
26-Dec-20 16:06 33.981771 -117.733186 111 5008ft 181kts
26-Dec-20 16:07 33.965823 -117.682044 111 4997ft 181kts
26-Dec-20 16:08 33.948025 -117.625061 111 4997ft 181kts
26-Dec-20 16:09 33.930305 -117.568315 111 4997ft 181kts
26-Dec-20 16:10 33.911224 -117.512339 119 5000ft 181kts
26-Dec-20 16:11 33.885134 -117.460899 122 4996ft 180kts
26-Dec-20 16:12 33.858747 -117.409254 99 4990ft 174kts
26-Dec-20 16:13 33.867921 -117.385387 19 4818ft 134kts
26-Dec-20 16:14 33.859095 -117.342929 144 5004ft 161kts
26-Dec-20 16:15 33.831386 -117.298462 124 4997ft 169kts
26-Dec-20 16:16 33.808390 -117.253916 122 4993ft 150kts
26-Dec-20 16:17 33.786639 -117.211266 122 4998ft 148kts
26-Dec-20 16:18 33.764940 -117.168919 122 4999ft 148kts
26-Dec-20 16:19 33.743155 -117.126570 122 4990ft 149kts
26-Dec-20 16:20 33.719235 -117.130125 294 4989ft 143kts
26-Dec-20 16:21 33.749907 -117.154291 331 4972ft 111kts
26-Dec-20 16:22 33.773166 -117.175951 316 4682ft 107kts
26-Dec-20 16:24 33.796914 -117.196930 322 4372ft 105kts
26-Dec-20 16:25 33.823236 -117.217676 328 3315ft 110kts
26-Dec-20 16:26 33.846707 -117.235447 330 2388ft 88kts
26-Dec-20 16:27 33.867213 -117.249910 343 1500ft 80kts
26-Dec-20 16:28 33.874227 -117.252986 17 1505ft 3kts

Navigation Log

Ident Type
Flight plan parsing failed, navigation log unavailable